Time,TemperatureF,DewpointF,PressureIn,WindDirection,WindDirectionDegrees,WindSpeedMPH,WindSpeedGustMPH,Humidity,HourlyPrecipIn,Conditions,Clouds,dailyrainin,SolarRadiationWatts/m^2,SoftwareType,DateUTC
2013-11-11 00:02:00,51.0,30.0,30.22,West,267,3.0,6.0,43,-99.99,,,-99.99,0.000000,,2013-11-11 07:02:00,
2013-11-11 00:22:00,48.0,29.0,30.22,NW,318,6.0,9.0,47,-99.99,,,-99.99,0.000000,,2013-11-11 07:22:00,
2013-11-11 00:42:00,49.0,30.0,30.22,NW,313,7.0,11.0,47,-99.99,,,-99.99,0.000000,,2013-11-11 07:42:00,
2013-11-11 01:22:00,47.0,30.0,30.21,West,275,4.0,8.0,51,-99.99,,,-99.99,0.000000,,2013-11-11 08:22:00,
2013-11-11 01:32:00,47.0,30.0,30.21,West,275,4.0,8.0,51,-99.99,,,-99.99,0.000000,,2013-11-11 08:32:00,
2013-11-11 02:22:00,45.0,30.0,30.21,West,262,5.0,7.0,54,-99.99,,,-99.99,0.000000,,2013-11-11 09:22:00,
2013-11-11 02:33:00,45.0,30.0,30.21,West,262,5.0,7.0,54,-99.99,,,-99.99,0.000000,,2013-11-11 09:33:00,
2013-11-11 02:54:00,45.0,31.0,30.20,WSW,250,3.0,5.0,56,-99.99,,,-99.99,0.000000,,2013-11-11 09:54:00,
2013-11-11 03:03:00,45.0,31.0,30.20,WSW,250,3.0,5.0,56,-99.99,,,-99.99,0.000000,,2013-11-11 10:03:00,
2013-11-11 03:13:00,45.0,31.0,30.20,WSW,250,3.0,5.0,56,-99.99,,,-99.99,0.000000,,2013-11-11 10:13:00,
2013-11-11 04:12:00,46.0,31.0,30.21,West,266,5.0,6.0,55,-99.99,,,-99.99,0.000000,,2013-11-11 11:12:00,
2013-11-11 04:21:00,46.0,31.0,30.21,West,266,5.0,6.0,55,-99.99,,,-99.99,0.000000,,2013-11-11 11:21:00,
2013-11-11 04:42:00,45.0,31.0,30.21,North,357,3.0,4.0,56,-99.99,,,-99.99,0.000000,,2013-11-11 11:42:00,
2013-11-11 04:52:00,45.0,31.0,30.21,North,357,3.0,4.0,56,-99.99,,,-99.99,0.000000,,2013-11-11 11:52:00,
2013-11-11 05:02:00,45.0,31.0,30.21,North,357,3.0,4.0,56,-99.99,,,-99.99,0.000000,,2013-11-11 12:02:00,
2013-11-11 06:21:00,43.0,32.0,30.23,WSW,256,4.0,5.0,63,-99.99,,,-99.99,0.000000,,2013-11-11 13:21:00,
2013-11-11 06:32:00,43.0,32.0,30.23,WSW,256,4.0,5.0,63,-99.99,,,-99.99,0.000000,,2013-11-11 13:32:00,
2013-11-11 06:52:00,43.0,31.0,30.24,WSW,253,4.0,5.0,63,-99.99,,,-99.99,0.000000,,2013-11-11 13:52:00,
2013-11-11 07:11:00,44.0,31.0,30.25,NW,324,1.0,3.0,60,-99.99,,,-99.99,6.970000,,2013-11-11 14:11:00,
2013-11-11 07:42:00,44.0,31.0,30.25,WNW,297,1.0,3.0,61,-99.99,,,-99.99,30.680000,,2013-11-11 14:42:00,
2013-11-11 08:11:00,49.0,34.0,30.26,WSW,257,3.0,4.0,54,-99.99,,,-99.99,115.760002,,2013-11-11 15:11:00,
2013-11-11 09:13:00,59.0,32.0,30.28,East,91,5.0,7.0,35,-99.99,,,-99.99,276.839996,,2013-11-11 16:13:00,
2013-11-11 09:23:00,61.0,32.0,30.28,East,86,1.0,3.0,33,-99.99,,,-99.99,353.549988,,2013-11-11 16:23:00,
2013-11-11 09:33:00,61.0,32.0,30.28,East,86,1.0,3.0,33,-99.99,,,-99.99,353.549988,,2013-11-11 16:33:00,
2013-11-11 09:42:00,61.0,32.0,30.28,East,86,1.0,3.0,33,-99.99,,,-99.99,353.549988,,2013-11-11 16:42:00,
2013-11-11 10:22:00,64.0,29.0,30.28,ENE,69,2.0,4.0,26,-99.99,,,-99.99,453.959991,,2013-11-11 17:22:00,
2013-11-11 10:33:00,64.0,29.0,30.28,ENE,69,2.0,4.0,26,-99.99,,,-99.99,453.959991,,2013-11-11 17:33:00,
2013-11-11 11:13:00,65.0,29.0,30.27,NE,40,4.0,8.0,25,-99.99,,,-99.99,528.580017,,2013-11-11 18:13:00,
2013-11-11 11:23:00,67.0,29.0,30.27,NE,51,2.0,7.0,23,-99.99,,,-99.99,548.099976,,2013-11-11 18:23:00,
2013-11-11 11:32:00,67.0,29.0,30.27,NE,51,2.0,7.0,23,-99.99,,,-99.99,548.099976,,2013-11-11 18:32:00,
2013-11-11 12:42:00,70.0,29.0,30.24,East,83,3.0,10.0,21,-99.99,,,-99.99,586.460022,,2013-11-11 19:42:00,
2013-11-11 13:11:00,72.0,31.0,30.22,NNE,27,2.0,7.0,22,-99.99,,,-99.99,574.599976,,2013-11-11 20:11:00,
2013-11-11 13:42:00,72.0,32.0,30.21,North,359,4.0,7.0,22,-99.99,,,-99.99,562.049988,,2013-11-11 20:42:00,
2013-11-11 14:22:00,73.0,34.0,30.19,ESE,114,3.0,7.0,23,-99.99,,,-99.99,502.779999,,2013-11-11 21:22:00,
2013-11-11 14:43:00,73.0,34.0,30.19,ENE,76,4.0,7.0,24,-99.99,,,-99.99,476.279999,,2013-11-11 21:43:00,
2013-11-11 15:14:00,74.0,34.0,30.18,North,6,2.0,6.0,22,-99.99,,,-99.99,417.010010,,2013-11-11 22:14:00,
2013-11-11 16:13:00,74.0,33.0,30.17,East,81,3.0,6.0,22,-99.99,,,-99.99,267.079987,,2013-11-11 23:13:00,
2013-11-11 16:42:00,73.0,33.0,30.18,ENE,68,3.0,7.0,22,-99.99,,,-99.99,183.399994,,2013-11-11 23:42:00,
2013-11-11 17:52:00,61.0,36.0,30.19,West,268,4.0,6.0,39,-99.99,,,-99.99,3.490000,,2013-11-12 00:52:00,
2013-11-11 18:01:00,61.0,36.0,30.19,West,268,4.0,6.0,39,-99.99,,,-99.99,3.490000,,2013-11-12 01:01:00,
2013-11-11 19:22:00,57.0,33.0,30.22,WSW,245,6.0,8.0,39,-99.99,,,-99.99,0.000000,,2013-11-12 02:22:00,
2013-11-11 19:32:00,57.0,33.0,30.22,WSW,245,6.0,8.0,39,-99.99,,,-99.99,0.000000,,2013-11-12 02:32:00,
2013-11-11 20:11:00,57.0,34.0,30.22,WSW,243,6.0,7.0,41,-99.99,,,-99.99,0.000000,,2013-11-12 03:11:00,
2013-11-11 21:14:00,54.0,30.0,30.23,WNW,291,6.0,7.0,39,-99.99,,,-99.99,0.000000,,2013-11-12 04:14:00,
2013-11-11 21:43:00,51.0,31.0,30.24,NW,308,7.0,9.0,45,-99.99,,,-99.99,0.000000,,2013-11-12 04:43:00,
2013-11-11 22:13:00,53.0,30.0,30.25,WNW,282,6.0,8.0,40,-99.99,,,-99.99,0.000000,,2013-11-12 05:13:00,
2013-11-11 22:23:00,52.0,29.0,30.26,WNW,295,5.0,8.0,40,-99.99,,,-99.99,0.000000,,2013-11-12 05:23:00,
2013-11-11 22:44:00,50.0,30.0,30.27,West,281,6.0,8.0,45,-99.99,,,-99.99,0.000000,,2013-11-12 05:44:00,
2013-11-11 23:13:00,50.0,29.0,30.26,WSW,258,5.0,6.0,44,-99.99,,,-99.99,0.000000,,2013-11-12 06:13:00,
2013-11-11 23:42:00,50.0,29.0,30.28,WNW,290,2.0,4.0,44,-99.99,,,-99.99,0.000000,,2013-11-12 06:42:00,
2013-11-11 23:52:00,50.0,29.0,30.28,WNW,290,2.0,4.0,44,-99.99,,,-99.99,0.000000,,2013-11-12 06:52:00,